Billings, MT (59101)

3:48 AM MST on December 07, 2016 (GMT -0700)
Jupiter Sulphur | | Change Station

Elev 3114 ft 45.78 °N, 108.49 °W | Updated 2 minutes ago

Light Snow
Light Snow
5.5 °F
Feels Like 6 °F
N
1.0
Wind Variable Wind from SE
Gusts 4.0 mph

Today
High -- | Low -- °F
--% Chance of Precip.
Yesterday
High -- | Low -- °F
Precip. -- in
Pressure 30.49 in
Visibility 10.0 miles
Clouds Few 1000 ft
Scattered Clouds 3500 ft
Mostly Cloudy 6500 ft
Windchill 6 °F
Dew Point -2 °F
Humidity 71%
Rainfall 0.00 in
Snow Depth Not available.
7:41 AM 4:29 PM
Waxing Crescent, 51% visible
METAR KBIL 070953Z 06003KT 10SM -SN FEW010 SCT035 BKN065 M16/M19 A3028 RMK AO2 SLP325 P0000 T11611194
Pressure 30.49 in
Visibility 10.0 miles
Clouds Few 1000 ft
Scattered Clouds 3500 ft
Mostly Cloudy 6500 ft
Windchill 6 °F
Dew Point -2 °F
Humidity 71%
Rainfall 0.00 in
Snow Depth Not available.
7:41 AM 4:29 PM
Waxing Crescent, 51% visible
METAR KBIL 070953Z 06003KT 10SM -SN FEW010 SCT035 BKN065 M16/M19 A3028 RMK AO2 SLP325 P0000 T11611194

10-Day Weather Forecast

Almanac

Astronomy

Dec. 07, 2016 Rise Set
Actual Time
Civil Twilight
Nautical Twilight
Astronomical Twilight
Moon
Length of Visible Light
Length of Day
Tomorrow will be .
, % of the Moon is Illuminated

Today's Extremes

State Highs State Lows

Community

WunderPhotos

Upload Photos

1,956,111 photos uploaded!

WunderBlog® & News

Nearby

Air Quality

  Air Quality AQ Index Pollutant
Not available.

Snow Depth

Station Depth Elevation

Earthquake Activity

City Distance Mag. Time & Date
Minimum magnitude displayed is 2.5.

Coastal Water Temperatures

Place Temperature

Stations

Nearby Weather Stations

Station Location Temp. Windchill Dew Point Humidity Wind Precip. Elev Updated Type
                   

Watches & Warnings

There are currently no watches in effect.